^^
Saratoga-Weather Station Historical Data
Daily Summary for April 17, 2020 Units:  Both    English   Metric
Daily Weekly Monthly Yearly Custom
  High: Low: Average:
Temperature: 48.2 °F /  9 °C 36.7 °F /  2.6 °C 42.3 °F /  5.7 °C
Dew Point: 46 °F /  7.8 °C 35.8 °F /  2.1 °C 40.6 °F /  4.8 °C
Humidity: 98% 87% 94%
Wind Speed: 11mph /  17.7km/h - 1.3mph /  2.1km/h
Wind Gust: 13mph /  20.9km/h - -
Wind- - West
Pressure: 30.2 in /  1023.0 hPa 30 in /  1016.6 hPa -
Precipitation: 0.13 in /  3.3 mm    
Historical Graphs
 
 
Tabular Data for April 17, 2020
Time Temperature Dew Point Pressure Wind Wind Speed Wind Gust Humidity Rainfall Rate (Hourly) solar
00:01 38.8 °F /  3.8 °C 37.8 °F /  3.2 °C 30.2in /  1021.3hPa Calm     96% 0in /  0.0mm 0 W/m2
00:06 38.8 °F /  3.8 °C 37.8 °F /  3.2 °C 30.2in /  1021.3hPa Calm     96% 0in /  0.0mm 0 W/m2
00:11 38.7 °F /  3.7 °C 37.6 °F /  3.1 °C 30.2in /  1021.3hPa Calm   2mph /  3.2km/h 96% 0in /  0.0mm 0 W/m2
00:16 38.7 °F /  3.7 °C 37.6 °F /  3.1 °C 30.2in /  1021.3hPa Calm   4mph /  6.4km/h 96% 0in /  0.0mm 0 W/m2
00:21 38.7 °F /  3.7 °C 37.6 °F /  3.1 °C 30.2in /  1021.0hPa Calm     96% 0in /  0.0mm 0 W/m2
00:26 38.7 °F /  3.7 °C 37.6 °F /  3.1 °C 30.2in /  1021.0hPa Calm   4mph /  6.4km/h 96% 0in /  0.0mm 0 W/m2
00:31 38.7 °F /  3.7 °C 37.6 °F /  3.1 °C 30.2in /  1021.0hPa Calm     96% 0in /  0.0mm 0 W/m2
00:36 38.5 °F /  3.6 °C 37.4 °F /  3 °C 30.2in /  1021.0hPa Calm     96% 0in /  0.0mm 0 W/m2
00:41 38.5 °F /  3.6 °C 37.4 °F /  3 °C 30.2in /  1021.3hPa Calm     96% 0in /  0.0mm 0 W/m2
00:46 38.3 °F /  3.5 °C 37.2 °F /  2.9 °C 30.2in /  1021.0hPa Calm     96% 0in /  0.0mm 0 W/m2
00:51 38.3 °F /  3.5 °C 37.2 °F /  2.9 °C 30.2in /  1021.0hPa Calm     96% 0in /  0.0mm 0 W/m2
00:56 38.3 °F /  3.5 °C 37.2 °F /  2.9 °C 30.2in /  1021.0hPa Calm   1mph /  1.6km/h 96% 0in /  0.0mm 0 W/m2
01:01 38.1 °F /  3.4 °C 37 °F /  2.8 °C 30.2in /  1021.0hPa Calm     96% 0in /  0.0mm 0 W/m2
01:06 38.1 °F /  3.4 °C 37 °F /  2.8 °C 30.1in /  1020.7hPa Calm     96% 0in /  0.0mm 0 W/m2
01:11 38.1 °F /  3.4 °C 37 °F /  2.8 °C 30.1in /  1020.7hPa Calm     96% 0in /  0.0mm 0 W/m2
01:16 38.1 °F /  3.4 °C 37 °F /  2.8 °C 30.1in /  1020.7hPa Calm     96% 0in /  0.0mm 0 W/m2
01:21 38.1 °F /  3.4 °C 37 °F /  2.8 °C 30.1in /  1020.7hPa Calm     96% 0in /  0.0mm 0 W/m2
01:26 38.1 °F /  3.4 °C 37 °F /  2.8 °C 30.1in /  1020.7hPa Calm     96% 0in /  0.0mm 0 W/m2
01:31 38.5 °F /  3.6 °C 37.4 °F /  3 °C 30.1in /  1020.7hPa Calm     96% 0in /  0.0mm 0 W/m2
01:36 38.5 °F /  3.6 °C 37.4 °F /  3 °C 30.1in /  1020.7hPa Calm     96% 0in /  0.0mm 0 W/m2
01:41 38.3 °F /  3.5 °C 37.2 °F /  2.9 °C 30.1in /  1020.7hPa Calm     96% 0in /  0.0mm 0 W/m2
01:46 38.3 °F /  3.5 °C 37.2 °F /  2.9 °C 30.1in /  1020.3hPa Calm     96% 0in /  0.0mm 0 W/m2
01:51 38.1 °F /  3.4 °C 37 °F /  2.8 °C 30.1in /  1020.3hPa Calm     96% 0in /  0.0mm 0 W/m2
01:56 37.9 °F /  3.3 °C 36.9 °F /  2.7 °C 30.1in /  1020.3hPa Calm     96% 0in /  0.0mm 0 W/m2
02:02 38.1 °F /  3.4 °C 37 °F /  2.8 °C 30.1in /  1020.3hPa Calm     96% 0in /  0.0mm 0 W/m2
02:07 38.1 °F /  3.4 °C 37.4 °F /  3 °C 30.1in /  1020.3hPa Calm     97% 0in /  0.0mm 0 W/m2
02:12 37.9 °F /  3.3 °C 36.9 °F /  2.7 °C 30.1in /  1020.3hPa Calm     96% 0in /  0.0mm 0 W/m2
02:17 37.9 °F /  3.3 °C 36.9 °F /  2.7 °C 30.1in /  1020.0hPa Calm     96% 0in /  0.0mm 0 W/m2
02:22 37.9 °F /  3.3 °C 36.9 °F /  2.7 °C 30.1in /  1020.0hPa Calm     96% 0in /  0.0mm 0 W/m2
02:27 37.9 °F /  3.3 °C 36.9 °F /  2.7 °C 30.1in /  1020.0hPa Calm     96% 0in /  0.0mm 0 W/m2
02:32 37.8 °F /  3.2 °C 36.7 °F /  2.6 °C 30.1in /  1020.0hPa Calm     96% 0in /  0.0mm 0 W/m2
02:37 37.8 °F /  3.2 °C 36.7 °F /  2.6 °C 30.1in /  1020.0hPa Calm     96% 0in /  0.0mm 0 W/m2
02:42 37.6 °F /  3.1 °C 36.5 °F /  2.5 °C 30.1in /  1020.0hPa Calm     96% 0in /  0.0mm 0 W/m2
02:47 37.6 °F /  3.1 °C 36.9 °F /  2.7 °C 30.1in /  1019.6hPa Calm     97% 0in /  0.0mm 0 W/m2
02:52 37.8 °F /  3.2 °C 37 °F /  2.8 °C 30.1in /  1019.6hPa Calm     97% 0in /  0.0mm 0 W/m2
02:57 37.8 °F /  3.2 °C 37 °F /  2.8 °C 30.1in /  1019.6hPa Calm     97% 0in /  0.0mm 0 W/m2
03:02 37.8 °F /  3.2 °C 37 °F /  2.8 °C 30.1in /  1019.6hPa Calm     97% 0in /  0.0mm 0 W/m2
03:07 37.6 °F /  3.1 °C 36.9 °F /  2.7 °C 30.1in /  1019.6hPa Calm     97% 0in /  0.0mm 0 W/m2
03:12 37.6 °F /  3.1 °C 36.5 °F /  2.5 °C 30.1in /  1019.6hPa Calm     96% 0in /  0.0mm 0 W/m2
03:17 37.4 °F /  3 °C 36.3 °F /  2.4 °C 30.1in /  1019.6hPa Calm     96% 0in /  0.0mm 0 W/m2
03:22 37.4 °F /  3 °C 36.3 °F /  2.4 °C 30.1in /  1019.6hPa Calm     96% 0in /  0.0mm 0 W/m2
03:27 37.2 °F /  2.9 °C 36.1 °F /  2.3 °C 30.1in /  1019.6hPa Calm     96% 0in /  0.0mm 0 W/m2
03:32 37.2 °F /  2.9 °C 36.5 °F /  2.5 °C 30.1in /  1019.3hPa Calm     97% 0in /  0.0mm 0 W/m2
03:37 37.2 °F /  2.9 °C 36.5 °F /  2.5 °C 30.1in /  1019.3hPa Calm     97% 0in /  0.0mm 0 W/m2
03:42 37 °F /  2.8 °C 36.3 °F /  2.4 °C 30.1in /  1019.3hPa Calm     97% 0in /  0.0mm 0 W/m2
03:47 37.2 °F /  2.9 °C 36.5 °F /  2.5 °C 30.1in /  1019.3hPa Calm     97% 0.01in /  0.2mm 0 W/m2
03:52 37.2 °F /  2.9 °C 36.5 °F /  2.5 °C 30.1in /  1019.3hPa Calm     97% 0.01in /  0.2mm 0 W/m2
03:57 37 °F /  2.8 °C 36.3 °F /  2.4 °C 30.1in /  1019.3hPa Calm     97% 0.01in /  0.2mm 0 W/m2
04:02 37 °F /  2.8 °C 36.3 °F /  2.4 °C 30.1in /  1019.0hPa Calm     97% 0.01in /  0.2mm 0 W/m2
04:07 37 °F /  2.8 °C 36 °F /  2.2 °C 30.1in /  1019.0hPa Calm     96% 0.01in /  0.2mm 0 W/m2
04:12 37 °F /  2.8 °C 36.3 °F /  2.4 °C 30.1in /  1019.0hPa Calm     97% 0.01in /  0.2mm 0 W/m2
04:17 37 °F /  2.8 °C 36.3 °F /  2.4 °C 30.1in /  1019.0hPa Calm     97% 0.01in /  0.2mm 0 W/m2
04:22 36.9 °F /  2.7 °C 36.1 °F /  2.3 °C 30.1in /  1019.0hPa Calm     97% 0.01in /  0.2mm 0 W/m2
04:27 36.9 °F /  2.7 °C 35.8 °F /  2.1 °C 30.1in /  1019.0hPa Calm     96% 0.01in /  0.2mm 0 W/m2
04:32 36.9 °F /  2.7 °C 36.1 °F /  2.3 °C 30.1in /  1018.6hPa Calm     97% 0.01in /  0.2mm 0 W/m2
04:37 36.7 °F /  2.6 °C 36 °F /  2.2 °C 30.1in /  1019.0hPa Calm     97% 0.01in /  0.2mm 0 W/m2
04:42 36.7 °F /  2.6 °C 36 °F /  2.2 °C 30.1in /  1018.6hPa Calm     97% 0.01in /  0.2mm 0 W/m2
04:47 36.7 °F /  2.6 °C 36 °F /  2.2 °C 30.1in /  1018.6hPa Calm     97% 0in /  0.0mm 0 W/m2
04:52 36.7 °F /  2.6 °C 36 °F /  2.2 °C 30.1in /  1018.6hPa Calm     97% 0in /  0.0mm 0 W/m2
04:57 36.7 °F /  2.6 °C 36 °F /  2.2 °C 30.1in /  1018.6hPa Calm     97% 0in /  0.0mm 0 W/m2
05:02 36.7 °F /  2.6 °C 36 °F /  2.2 °C 30.1in /  1018.3hPa Calm     97% 0in /  0.0mm 0 W/m2
05:07 36.7 °F /  2.6 °C 36 °F /  2.2 °C 30.1in /  1018.3hPa Calm     97% 0in /  0.0mm 0 W/m2
05:12 36.7 °F /  2.6 °C 36 °F /  2.2 °C 30.1in /  1018.3hPa Calm     97% 0in /  0.0mm 0 W/m2
05:17 36.7 °F /  2.6 °C 36 °F /  2.2 °C 30.1in /  1018.3hPa Calm     97% 0in /  0.0mm 0 W/m2
05:22 36.7 °F /  2.6 °C 36 °F /  2.2 °C 30.1in /  1018.3hPa Calm     97% 0in /  0.0mm 0 W/m2
05:27 36.9 °F /  2.7 °C 36.1 °F /  2.3 °C 30.1in /  1018.3hPa Calm     97% 0in /  0.0mm 0 W/m2
05:32 37 °F /  2.8 °C 36.3 °F /  2.4 °C 30.1in /  1018.3hPa Calm     97% 0in /  0.0mm 0 W/m2
05:37 37 °F /  2.8 °C 36.3 °F /  2.4 °C 30.1in /  1018.3hPa Calm     97% 0in /  0.0mm 0 W/m2
05:42 37 °F /  2.8 °C 36.3 °F /  2.4 °C 30.1in /  1018.0hPa Calm     97% 0in /  0.0mm 0 W/m2
05:47 37 °F /  2.8 °C 36.3 °F /  2.4 °C 30.1in /  1018.0hPa Calm     97% 0in /  0.0mm 0 W/m2
05:52 36.9 °F /  2.7 °C 36.1 °F /  2.3 °C 30.1in /  1018.0hPa Calm     97% 0in /  0.0mm 0 W/m2
05:57 36.9 °F /  2.7 °C 36.1 °F /  2.3 °C 30.1in /  1018.0hPa Calm     97% 0in /  0.0mm 0 W/m2
06:02 36.9 °F /  2.7 °C 36.1 °F /  2.3 °C 30.1in /  1018.0hPa Calm     97% 0in /  0.0mm 0 W/m2
06:07 36.9 °F /  2.7 °C 36.1 °F /  2.3 °C 30.1in /  1018.0hPa Calm     97% 0in /  0.0mm 0 W/m2
06:12 36.7 °F /  2.6 °C 36 °F /  2.2 °C 30.1in /  1018.0hPa Calm     97% 0in /  0.0mm 0 W/m2
06:17 36.9 °F /  2.7 °C 36.1 °F /  2.3 °C 30.1in /  1018.0hPa Calm     97% 0in /  0.0mm 0 W/m2
06:22 36.9 °F /  2.7 °C 36.1 °F /  2.3 °C 30.1in /  1018.0hPa Calm     97% 0in /  0.0mm 0 W/m2
06:27 36.9 °F /  2.7 °C 36.1 °F /  2.3 °C 30.1in /  1018.0hPa Calm     97% 0in /  0.0mm 0 W/m2
06:32 36.9 °F /  2.7 °C 36.1 °F /  2.3 °C 30.1in /  1018.0hPa Calm     97% 0in /  0.0mm 0 W/m2
06:37 36.9 °F /  2.7 °C 36.1 °F /  2.3 °C 30.1in /  1018.0hPa Calm     97% 0in /  0.0mm 0 W/m2
06:42 37.6 °F /  3.1 °C 36.9 °F /  2.7 °C 30.1in /  1019.0hPa West 4mph /  6.4km/h 11mph /  17.7km/h 97% 0in /  0.0mm 0 W/m2
06:48 37.8 °F /  3.2 °C 37 °F /  2.8 °C 30.1in /  1018.6hPa Calm   1mph /  1.6km/h 97% 0in /  0.0mm 0 W/m2
06:53 37.9 °F /  3.3 °C 37.2 °F /  2.9 °C 30.1in /  1018.3hPa Calm   11mph /  17.7km/h 97% 0in /  0.0mm 0 W/m2
06:58 38.1 °F /  3.4 °C 37.4 °F /  3 °C 30.1in /  1018.3hPa Calm     97% 0in /  0.0mm 0 W/m2
07:03 38.1 °F /  3.4 °C 37.4 °F /  3 °C 30.1in /  1018.3hPa Calm     97% 0in /  0.0mm 0 W/m2
07:08 38.3 °F /  3.5 °C 37.6 °F /  3.1 °C 30.1in /  1018.3hPa Calm     97% 0in /  0.0mm 0 W/m2
07:13 38.5 °F /  3.6 °C 37.8 °F /  3.2 °C 30.1in /  1018.3hPa Calm     97% 0in /  0.0mm 0 W/m2
07:18 38.7 °F /  3.7 °C 37.9 °F /  3.3 °C 30.1in /  1018.3hPa Calm     97% 0in /  0.0mm 0 W/m2
07:23 38.7 °F /  3.7 °C 37.9 °F /  3.3 °C 30.1in /  1018.3hPa Calm     97% 0in /  0.0mm 0 W/m2
07:28 38.7 °F /  3.7 °C 37.9 °F /  3.3 °C 30.1in /  1018.3hPa Calm     97% 0in /  0.0mm 0 W/m2
07:33 38.7 °F /  3.7 °C 37.9 °F /  3.3 °C 30.1in /  1018.3hPa Calm     97% 0in /  0.0mm 0 W/m2
07:38 38.5 °F /  3.6 °C 37.8 °F /  3.2 °C 30.1in /  1018.3hPa Calm     97% 0in /  0.0mm 0 W/m2
07:43 38.5 °F /  3.6 °C 37.8 °F /  3.2 °C 30.1in /  1018.3hPa Calm     97% 0in /  0.0mm 0 W/m2
07:48 38.1 °F /  3.4 °C 37.4 °F /  3 °C 30.1in /  1018.0hPa Calm     97% 0in /  0.0mm 0 W/m2
07:53 37.9 °F /  3.3 °C 37.2 °F /  2.9 °C 30.1in /  1018.3hPa Calm     97% 0in /  0.0mm 0 W/m2
07:58 37.9 °F /  3.3 °C 37.2 °F /  2.9 °C 30.1in /  1018.0hPa Calm     97% 0in /  0.0mm 0 W/m2
08:03 37.9 °F /  3.3 °C 37.2 °F /  2.9 °C 30.1in /  1018.0hPa Calm     97% 0in /  0.0mm 0 W/m2
08:08 37.8 °F /  3.2 °C 37 °F /  2.8 °C 30.1in /  1018.0hPa Calm     97% 0in /  0.0mm 0 W/m2
08:13 37.8 °F /  3.2 °C 37 °F /  2.8 °C 30.1in /  1018.0hPa Calm     97% 0in /  0.0mm 0 W/m2
08:18 37.8 °F /  3.2 °C 37 °F /  2.8 °C 30.1in /  1018.3hPa Calm     97% 0in /  0.0mm 0 W/m2
08:23 37.8 °F /  3.2 °C 37 °F /  2.8 °C 30.1in /  1018.3hPa Calm     97% 0in /  0.0mm 0 W/m2
08:28 37.9 °F /  3.3 °C 37.2 °F /  2.9 °C 30.1in /  1018.0hPa Calm     97% 0in /  0.0mm 0 W/m2
08:33 37.9 °F /  3.3 °C 37.2 °F /  2.9 °C 30.1in /  1018.3hPa Calm     97% 0in /  0.0mm 0 W/m2
08:38 38.1 °F /  3.4 °C 37.4 °F /  3 °C 30.1in /  1018.0hPa Calm     97% 0in /  0.0mm 5 W/m2
08:43 38.1 °F /  3.4 °C 37.4 °F /  3 °C 30.1in /  1018.3hPa Calm     97% 0in /  0.0mm 9 W/m2
08:48 38.5 °F /  3.6 °C 37.8 °F /  3.2 °C 30.1in /  1018.3hPa Calm     97% 0in /  0.0mm 12 W/m2
08:53 38.5 °F /  3.6 °C 37.8 °F /  3.2 °C 30.1in /  1018.3hPa Calm     97% 0in /  0.0mm 16 W/m2
08:58 38.7 °F /  3.7 °C 37.9 °F /  3.3 °C 30.1in /  1018.3hPa Calm     97% 0in /  0.0mm 21 W/m2
09:03 38.7 °F /  3.7 °C 37.9 °F /  3.3 °C 30.1in /  1018.3hPa Calm     97% 0in /  0.0mm 25 W/m2
09:08 38.8 °F /  3.8 °C 38.1 °F /  3.4 °C 30.1in /  1018.3hPa Calm     97% 0in /  0.0mm 26 W/m2
09:13 39 °F /  3.9 °C 38.3 °F /  3.5 °C 30.1in /  1018.3hPa Calm     97% 0in /  0.0mm 18 W/m2
09:18 39 °F /  3.9 °C 38.3 °F /  3.5 °C 30.1in /  1018.0hPa Calm     97% 0in /  0.0mm 11 W/m2
09:23 39.4 °F /  4.1 °C 38.8 °F /  3.8 °C 30.1in /  1018.0hPa Calm     98% 0in /  0.0mm 21 W/m2
09:28 39.6 °F /  4.2 °C 39 °F /  3.9 °C 30.1in /  1018.0hPa Calm     98% 0in /  0.0mm 42 W/m2
09:33 39.7 °F /  4.3 °C 39.2 °F /  4 °C 30.1in /  1018.0hPa Calm     98% 0in /  0.0mm 58 W/m2
09:38 40.1 °F /  4.5 °C 39.6 °F /  4.2 °C 30.1in /  1018.0hPa Calm     98% 0in /  0.0mm 54 W/m2
09:43 40.3 °F /  4.6 °C 39.7 °F /  4.3 °C 30.1in /  1018.0hPa Calm     98% 0in /  0.0mm 49 W/m2
09:48 40.5 °F /  4.7 °C 39.9 °F /  4.4 °C 30.1in /  1018.0hPa Calm   2mph /  3.2km/h 98% 0in /  0.0mm 51 W/m2
09:53 40.8 °F /  4.9 °C 40.3 °F /  4.6 °C 30.1in /  1018.0hPa Calm   2mph /  3.2km/h 98% 0in /  0.0mm 53 W/m2
09:58 41.2 °F /  5.1 °C 40.6 °F /  4.8 °C 30.1in /  1017.6hPa NNE 0.9mph /  1.4km/h 2mph /  3.2km/h 98% 0in /  0.0mm 77 W/m2
10:03 41.5 °F /  5.3 °C 41 °F /  5 °C 30.1in /  1017.6hPa Calm   1mph /  1.6km/h 98% 0in /  0.0mm 90 W/m2
10:08 42.3 °F /  5.7 °C 41.7 °F /  5.4 °C 30.1in /  1017.6hPa Calm   2mph /  3.2km/h 98% 0in /  0.0mm 86 W/m2
10:13 42.8 °F /  6 °C 42.3 °F /  5.7 °C 30.1in /  1017.6hPa NW 4mph /  6.4km/h 4mph /  6.4km/h 98% 0in /  0.0mm 77 W/m2
10:18 43.5 °F /  6.4 °C 43 °F /  6.1 °C 30.1in /  1017.6hPa NNW 2.9mph /  4.7km/h 4mph /  6.4km/h 98% 0in /  0.0mm 62 W/m2
10:23 44.1 °F /  6.7 °C 43.5 °F /  6.4 °C 30in /  1017.3hPa Calm   3mph /  4.8km/h 98% 0in /  0.0mm 63 W/m2
10:28 44.4 °F /  6.9 °C 43.9 °F /  6.6 °C 30.1in /  1017.6hPa North 0.9mph /  1.4km/h 6mph /  9.7km/h 98% 0in /  0.0mm 60 W/m2
10:33 44.8 °F /  7.1 °C 44.2 °F /  6.8 °C 30.1in /  1017.6hPa NW 4mph /  6.4km/h 9mph /  14.5km/h 98% 0in /  0.0mm 49 W/m2
10:38 45.1 °F /  7.3 °C 44.6 °F /  7 °C 30.1in /  1017.6hPa NW 4mph /  6.4km/h 4mph /  6.4km/h 98% 0in /  0.0mm 37 W/m2
10:44 45.7 °F /  7.6 °C 45.1 °F /  7.3 °C 30.1in /  1017.6hPa West 0.9mph /  1.4km/h 9mph /  14.5km/h 98% 0in /  0.0mm 23 W/m2
10:49 45.9 °F /  7.7 °C 45.3 °F /  7.4 °C 30.1in /  1017.6hPa NNW 0.9mph /  1.4km/h 3mph /  4.8km/h 98% 0in /  0.0mm 16 W/m2
10:54 46.2 °F /  7.9 °C 45.1 °F /  7.3 °C 30.1in /  1017.6hPa North 0.9mph /  1.4km/h 2mph /  3.2km/h 96% 0in /  0.0mm 14 W/m2
10:59 46.6 °F /  8.1 °C 45.1 °F /  7.3 °C 30.1in /  1017.6hPa Calm   2mph /  3.2km/h 95% 0in /  0.0mm 16 W/m2
11:04 46.8 °F /  8.2 °C 45.1 °F /  7.3 °C 30.1in /  1017.6hPa WNW 2mph /  3.2km/h 4mph /  6.4km/h 94% 0in /  0.0mm 19 W/m2
11:09 47.1 °F /  8.4 °C 45 °F /  7.2 °C 30.1in /  1017.6hPa SW 0.9mph /  1.4km/h 3mph /  4.8km/h 92% 0in /  0.0mm 16 W/m2
11:14 47.7 °F /  8.7 °C 45.1 °F /  7.3 °C 30.1in /  1017.6hPa NNW 0.9mph /  1.4km/h 4mph /  6.4km/h 91% 0in /  0.0mm 16 W/m2
11:19 47.7 °F /  8.7 °C 44.6 °F /  7 °C 30.1in /  1017.6hPa Calm   9mph /  14.5km/h 89% 0in /  0.0mm 26 W/m2
11:24 48 °F /  8.9 °C 44.6 °F /  7 °C 30.1in /  1017.6hPa Calm   3mph /  4.8km/h 88% 0in /  0.0mm 30 W/m2
11:29 48.2 °F /  9 °C 44.6 °F /  7 °C 30.1in /  1017.6hPa Calm   7mph /  11.3km/h 87% 0in /  0.0mm 49 W/m2
11:34 48.2 °F /  9 °C 44.6 °F /  7 °C 30.1in /  1017.6hPa WNW 4mph /  6.4km/h 6mph /  9.7km/h 87% 0in /  0.0mm 54 W/m2
11:39 48.2 °F /  9 °C 44.6 °F /  7 °C 30.1in /  1017.6hPa NW 2mph /  3.2km/h 2mph /  3.2km/h 87% 0in /  0.0mm 53 W/m2
11:44 48 °F /  8.9 °C 44.6 °F /  7 °C 30.1in /  1017.6hPa Calm   1mph /  1.6km/h 88% 0in /  0.0mm 51 W/m2
11:49 48 °F /  8.9 °C 44.6 °F /  7 °C 30.1in /  1017.6hPa Calm   4mph /  6.4km/h 88% 0.01in /  0.2mm 51 W/m2
11:54 48 °F /  8.9 °C 44.6 °F /  7 °C 30.1in /  1017.6hPa West 2mph /  3.2km/h 3mph /  4.8km/h 88% 0.01in /  0.2mm 54 W/m2
11:59 47.8 °F /  8.8 °C 44.8 °F /  7.1 °C 30.1in /  1017.6hPa NNW 2.9mph /  4.7km/h 6mph /  9.7km/h 89% 0.02in /  0.5mm 54 W/m2
12:04 47.7 °F /  8.7 °C 44.6 °F /  7 °C 30.1in /  1017.6hPa WNW 2.9mph /  4.7km/h 4mph /  6.4km/h 89% 0.02in /  0.5mm 47 W/m2
12:09 47.7 °F /  8.7 °C 45 °F /  7.2 °C 30in /  1017.3hPa WNW 4mph /  6.4km/h 7mph /  11.3km/h 90% 0.02in /  0.5mm 42 W/m2
12:14 47.5 °F /  8.6 °C 45 °F /  7.2 °C 30in /  1017.3hPa WSW 8.9mph /  14.3km/h 9mph /  14.5km/h 91% 0.02in /  0.5mm 51 W/m2
12:19 47.3 °F /  8.5 °C 44.8 °F /  7.1 °C 30in /  1017.3hPa Calm   3mph /  4.8km/h 91% 0.03in /  0.8mm 53 W/m2
12:24 47.1 °F /  8.4 °C 44.6 °F /  7 °C 30in /  1017.3hPa WSW 0.9mph /  1.4km/h 4mph /  6.4km/h 91% 0.03in /  0.8mm 53 W/m2
12:29 47.1 °F /  8.4 °C 45 °F /  7.2 °C 30in /  1017.3hPa NW 0.9mph /  1.4km/h 3mph /  4.8km/h 92% 0.04in /  1.0mm 49 W/m2
12:34 46.9 °F /  8.3 °C 44.8 °F /  7.1 °C 30in /  1017.3hPa Calm   1mph /  1.6km/h 92% 0.04in /  1.0mm 51 W/m2
12:39 46.9 °F /  8.3 °C 44.8 °F /  7.1 °C 30in /  1017.3hPa WNW 2.9mph /  4.7km/h 6mph /  9.7km/h 92% 0.05in /  1.3mm 56 W/m2
12:44 46.9 °F /  8.3 °C 45 °F /  7.2 °C 30in /  1017.3hPa SW 2mph /  3.2km/h 6mph /  9.7km/h 93% 0.05in /  1.3mm 54 W/m2
12:49 46.9 °F /  8.3 °C 45 °F /  7.2 °C 30in /  1017.3hPa Calm   4mph /  6.4km/h 93% 0.05in /  1.3mm 47 W/m2
12:54 46.9 °F /  8.3 °C 45 °F /  7.2 °C 30in /  1016.9hPa WSW 2mph /  3.2km/h 4mph /  6.4km/h 93% 0.05in /  1.3mm 46 W/m2
12:59 46.9 °F /  8.3 °C 45.3 °F /  7.4 °C 30in /  1016.9hPa SW 4mph /  6.4km/h 4mph /  6.4km/h 94% 0.05in /  1.3mm 46 W/m2
13:04 46.9 °F /  8.3 °C 45 °F /  7.2 °C 30in /  1016.9hPa Calm   1mph /  1.6km/h 93% 0.05in /  1.3mm 42 W/m2
13:09 46.8 °F /  8.2 °C 45.1 °F /  7.3 °C 30in /  1016.9hPa WNW 2.9mph /  4.7km/h 4mph /  6.4km/h 94% 0.05in /  1.3mm 39 W/m2
13:14 46.8 °F /  8.2 °C 45.1 °F /  7.3 °C 30in /  1016.9hPa Calm   5mph /  8km/h 94% 0.05in /  1.3mm 54 W/m2
13:19 46.8 °F /  8.2 °C 45.1 °F /  7.3 °C 30in /  1016.9hPa West 6mph /  9.7km/h 6mph /  9.7km/h 94% 0.04in /  1.0mm 60 W/m2
13:24 46.9 °F /  8.3 °C 45.3 °F /  7.4 °C 30in /  1016.9hPa Calm   2mph /  3.2km/h 94% 0.05in /  1.3mm 47 W/m2
13:29 46.9 °F /  8.3 °C 45.3 °F /  7.4 °C 30in /  1016.9hPa NW 0.9mph /  1.4km/h 2mph /  3.2km/h 94% 0.04in /  1.0mm 42 W/m2
13:34 46.9 °F /  8.3 °C 45.3 °F /  7.4 °C 30in /  1016.9hPa Calm   3mph /  4.8km/h 94% 0.04in /  1.0mm 39 W/m2
13:39 46.9 °F /  8.3 °C 45.3 °F /  7.4 °C 30in /  1016.9hPa WNW 2mph /  3.2km/h 3mph /  4.8km/h 94% 0.04in /  1.0mm 51 W/m2
13:44 46.9 °F /  8.3 °C 45.3 °F /  7.4 °C 30in /  1016.9hPa Calm   3mph /  4.8km/h 94% 0.04in /  1.0mm 63 W/m2
13:49 46.9 °F /  8.3 °C 45.3 °F /  7.4 °C 30in /  1016.9hPa ESE 0.9mph /  1.4km/h 3mph /  4.8km/h 94% 0.03in /  0.8mm 53 W/m2
13:54 46.9 °F /  8.3 °C 45.3 °F /  7.4 °C 30in /  1016.9hPa Calm   2mph /  3.2km/h 94% 0.03in /  0.8mm 35 W/m2
13:59 46.9 °F /  8.3 °C 45.3 °F /  7.4 °C 30in /  1016.9hPa Calm   2mph /  3.2km/h 94% 0.03in /  0.8mm 21 W/m2
14:04 46.9 °F /  8.3 °C 45.3 °F /  7.4 °C 30in /  1016.9hPa Calm   3mph /  4.8km/h 94% 0.03in /  0.8mm 23 W/m2
14:09 46.9 °F /  8.3 °C 45.3 °F /  7.4 °C 30in /  1016.6hPa Calm   3mph /  4.8km/h 94% 0.02in /  0.5mm 19 W/m2
14:14 46.9 °F /  8.3 °C 45.5 °F /  7.5 °C 30in /  1016.6hPa Calm   1mph /  1.6km/h 95% 0.02in /  0.5mm 14 W/m2
14:19 46.9 °F /  8.3 °C 45.5 °F /  7.5 °C 30in /  1016.6hPa Calm     95% 0.02in /  0.5mm 28 W/m2
14:24 46.9 °F /  8.3 °C 45.5 °F /  7.5 °C 30in /  1016.6hPa SE 2mph /  3.2km/h 2mph /  3.2km/h 95% 0.02in /  0.5mm 21 W/m2
14:29 46.9 °F /  8.3 °C 45.5 °F /  7.5 °C 30in /  1016.6hPa Calm     95% 0.02in /  0.5mm 28 W/m2
14:34 46.9 °F /  8.3 °C 45.5 °F /  7.5 °C 30in /  1016.9hPa Calm   6mph /  9.7km/h 95% 0.02in /  0.5mm 40 W/m2
14:39 46.9 °F /  8.3 °C 45.5 °F /  7.5 °C 30in /  1016.9hPa WSW 2mph /  3.2km/h 4mph /  6.4km/h 95% 0.02in /  0.5mm 25 W/m2
14:45 47.1 °F /  8.4 °C 45.7 °F /  7.6 °C 30in /  1016.6hPa SW 2.9mph /  4.7km/h 3mph /  4.8km/h 95% 0.02in /  0.5mm 25 W/m2
14:50 47.1 °F /  8.4 °C 45.7 °F /  7.6 °C 30in /  1016.9hPa NW 0.9mph /  1.4km/h 2mph /  3.2km/h 95% 0.02in /  0.5mm 12 W/m2
14:55 47.1 °F /  8.4 °C 45.7 °F /  7.6 °C 30in /  1016.9hPa WSW 0.9mph /  1.4km/h 8mph /  12.9km/h 95% 0.02in /  0.5mm 21 W/m2
15:00 47.1 °F /  8.4 °C 45.7 °F /  7.6 °C 30in /  1016.9hPa WNW 2mph /  3.2km/h 6mph /  9.7km/h 95% 0.02in /  0.5mm 23 W/m2
15:05 47.1 °F /  8.4 °C 45.7 °F /  7.6 °C 30in /  1016.9hPa WNW 0.9mph /  1.4km/h 1mph /  1.6km/h 95% 0.02in /  0.5mm 26 W/m2
15:10 47.1 °F /  8.4 °C 45.7 °F /  7.6 °C 30in /  1016.9hPa Calm   4mph /  6.4km/h 95% 0.02in /  0.5mm 46 W/m2
15:15 47.3 °F /  8.5 °C 45.9 °F /  7.7 °C 30in /  1016.9hPa Calm   2mph /  3.2km/h 95% 0.02in /  0.5mm 26 W/m2
15:20 47.3 °F /  8.5 °C 45.9 °F /  7.7 °C 30in /  1016.9hPa North 4.9mph /  7.9km/h 10mph /  16.1km/h 95% 0.02in /  0.5mm 44 W/m2
15:25 47.5 °F /  8.6 °C 46 °F /  7.8 °C 30in /  1017.3hPa Calm   2mph /  3.2km/h 95% 0.02in /  0.5mm 30 W/m2
15:30 47.5 °F /  8.6 °C 46 °F /  7.8 °C 30in /  1017.3hPa WSW 2mph /  3.2km/h 10mph /  16.1km/h 95% 0.02in /  0.5mm 53 W/m2
15:35 47.5 °F /  8.6 °C 45.9 °F /  7.7 °C 30in /  1017.3hPa West 6mph /  9.7km/h 8mph /  12.9km/h 94% 0.02in /  0.5mm 83 W/m2
15:40 47.5 °F /  8.6 °C 45.9 °F /  7.7 °C 30in /  1017.3hPa West 4mph /  6.4km/h 4mph /  6.4km/h 94% 0.01in /  0.2mm 76 W/m2
15:45 47.7 °F /  8.7 °C 46 °F /  7.8 °C 30in /  1017.3hPa WNW 4mph /  6.4km/h 7mph /  11.3km/h 94% 0.01in /  0.2mm 53 W/m2
15:50 47.7 °F /  8.7 °C 46 °F /  7.8 °C 30in /  1017.3hPa West 6mph /  9.7km/h 9mph /  14.5km/h 94% 0in /  0.0mm 35 W/m2
15:55 47.7 °F /  8.7 °C 46 °F /  7.8 °C 30in /  1017.3hPa WSW 4.9mph /  7.9km/h 5mph /  8km/h 94% 0in /  0.0mm 30 W/m2
16:00 47.7 °F /  8.7 °C 45.7 °F /  7.6 °C 30.1in /  1017.6hPa West 2mph /  3.2km/h 9mph /  14.5km/h 93% 0in /  0.0mm 32 W/m2
16:05 47.7 °F /  8.7 °C 45.7 °F /  7.6 °C 30.1in /  1017.6hPa WSW 4mph /  6.4km/h 4mph /  6.4km/h 93% 0in /  0.0mm 30 W/m2
16:10 47.7 °F /  8.7 °C 45.7 °F /  7.6 °C 30.1in /  1017.6hPa Calm   6mph /  9.7km/h 93% 0in /  0.0mm 30 W/m2
16:15 47.7 °F /  8.7 °C 45.7 °F /  7.6 °C 30.1in /  1017.6hPa Calm   2mph /  3.2km/h 93% 0in /  0.0mm 33 W/m2
16:20 47.7 °F /  8.7 °C 45.7 °F /  7.6 °C 30.1in /  1018.0hPa Calm   4mph /  6.4km/h 93% 0in /  0.0mm 26 W/m2
16:25 47.7 °F /  8.7 °C 45.7 °F /  7.6 °C 30.1in /  1017.6hPa WNW 2mph /  3.2km/h 2mph /  3.2km/h 93% 0in /  0.0mm 37 W/m2
16:30 47.7 °F /  8.7 °C 45.7 °F /  7.6 °C 30.1in /  1018.0hPa NNW 2.9mph /  4.7km/h 4mph /  6.4km/h 93% 0in /  0.0mm 26 W/m2
16:35 47.5 °F /  8.6 °C 45.5 °F /  7.5 °C 30.1in /  1018.0hPa Calm   2mph /  3.2km/h 93% 0in /  0.0mm 21 W/m2
16:40 47.5 °F /  8.6 °C 45.5 °F /  7.5 °C 30.1in /  1018.0hPa Calm     93% 0in /  0.0mm 16 W/m2
16:45 47.5 °F /  8.6 °C 45.5 °F /  7.5 °C 30.1in /  1018.0hPa Calm   7mph /  11.3km/h 93% 0in /  0.0mm 12 W/m2
16:50 47.1 °F /  8.4 °C 45.1 °F /  7.3 °C 30.1in /  1018.3hPa WNW 0.9mph /  1.4km/h 6mph /  9.7km/h 93% 0in /  0.0mm 9 W/m2
16:55 47.1 °F /  8.4 °C 45.1 °F /  7.3 °C 30.1in /  1018.3hPa West 0.9mph /  1.4km/h 7mph /  11.3km/h 93% 0in /  0.0mm 7 W/m2
17:00 46.9 °F /  8.3 °C 45 °F /  7.2 °C 30.1in /  1018.3hPa Calm     93% 0in /  0.0mm 5 W/m2
17:05 46.8 °F /  8.2 °C 44.8 °F /  7.1 °C 30.1in /  1018.3hPa Calm     93% 0in /  0.0mm 0 W/m2
17:10 46.6 °F /  8.1 °C 44.6 °F /  7 °C 30.1in /  1018.3hPa Calm   6mph /  9.7km/h 93% 0in /  0.0mm 0 W/m2
17:15 46.6 °F /  8.1 °C 44.6 °F /  7 °C 30.1in /  1018.3hPa Calm     93% 0in /  0.0mm 0 W/m2
17:20 46.2 °F /  7.9 °C 44.2 °F /  6.8 °C 30.1in /  1018.3hPa Calm   5mph /  8km/h 93% 0in /  0.0mm 0 W/m2
17:25 46 °F /  7.8 °C 44.1 °F /  6.7 °C 30.1in /  1018.3hPa Calm     93% 0in /  0.0mm 0 W/m2
17:30 45.9 °F /  7.7 °C 43.9 °F /  6.6 °C 30.1in /  1018.3hPa Calm   2mph /  3.2km/h 93% 0in /  0.0mm 0 W/m2
17:35 45.9 °F /  7.7 °C 44.2 °F /  6.8 °C 30.1in /  1018.3hPa WNW 0.9mph /  1.4km/h 3mph /  4.8km/h 94% 0in /  0.0mm 0 W/m2
17:40 45.7 °F /  7.6 °C 44.1 °F /  6.7 °C 30.1in /  1018.6hPa Calm   2mph /  3.2km/h 94% 0in /  0.0mm 0 W/m2
17:45 45.9 °F /  7.7 °C 44.2 °F /  6.8 °C 30.1in /  1018.6hPa Calm   3mph /  4.8km/h 94% 0in /  0.0mm 0 W/m2
17:50 45.9 °F /  7.7 °C 44.2 °F /  6.8 °C 30.1in /  1018.6hPa WNW 0.9mph /  1.4km/h 4mph /  6.4km/h 94% 0in /  0.0mm 0 W/m2
17:55 45.9 °F /  7.7 °C 44.2 °F /  6.8 °C 30.1in /  1018.6hPa West 0.9mph /  1.4km/h 7mph /  11.3km/h 94% 0in /  0.0mm 0 W/m2
18:00 45.9 °F /  7.7 °C 43.9 °F /  6.6 °C 30.1in /  1018.6hPa SSW 2.9mph /  4.7km/h 4mph /  6.4km/h 93% 0in /  0.0mm 0 W/m2
18:05 45.7 °F /  7.6 °C 43.5 °F /  6.4 °C 30.1in /  1018.6hPa WNW 0.9mph /  1.4km/h 4mph /  6.4km/h 92% 0in /  0.0mm 0 W/m2
18:10 45.7 °F /  7.6 °C 43.2 °F /  6.2 °C 30.1in /  1019.0hPa Calm   1mph /  1.6km/h 91% 0in /  0.0mm 0 W/m2
18:15 45.9 °F /  7.7 °C 43.2 °F /  6.2 °C 30.1in /  1019.0hPa WSW 0.9mph /  1.4km/h 6mph /  9.7km/h 90% 0in /  0.0mm 0 W/m2
18:20 45.7 °F /  7.6 °C 43 °F /  6.1 °C 30.1in /  1019.0hPa NW 2.9mph /  4.7km/h 3mph /  4.8km/h 90% 0in /  0.0mm 0 W/m2
18:25 45.7 °F /  7.6 °C 43 °F /  6.1 °C 30.1in /  1019.0hPa Calm   10mph /  16.1km/h 90% 0in /  0.0mm 0 W/m2
18:30 45.7 °F /  7.6 °C 43 °F /  6.1 °C 30.1in /  1019.0hPa Calm   7mph /  11.3km/h 90% 0in /  0.0mm 0 W/m2
18:35 45.7 °F /  7.6 °C 43 °F /  6.1 °C 30.1in /  1019.0hPa WSW 2mph /  3.2km/h 8mph /  12.9km/h 90% 0in /  0.0mm 0 W/m2
18:40 45.7 °F /  7.6 °C 43 °F /  6.1 °C 30.1in /  1019.3hPa West 8.1mph /  13km/h 9mph /  14.5km/h 90% 0in /  0.0mm 0 W/m2
18:45 45.7 °F /  7.6 °C 43 °F /  6.1 °C 30.1in /  1019.3hPa West 6.9mph /  11.1km/h 7mph /  11.3km/h 90% 0in /  0.0mm 0 W/m2
18:50 45.7 °F /  7.6 °C 43 °F /  6.1 °C 30.1in /  1019.3hPa WNW 4mph /  6.4km/h 9mph /  14.5km/h 90% 0in /  0.0mm 0 W/m2
18:55 45.5 °F /  7.5 °C 42.8 °F /  6 °C 30.1in /  1019.3hPa WSW 4.9mph /  7.9km/h 6mph /  9.7km/h 90% 0in /  0.0mm 0 W/m2
19:00 45.5 °F /  7.5 °C 43 °F /  6.1 °C 30.1in /  1019.3hPa Calm   10mph /  16.1km/h 91% 0in /  0.0mm 0 W/m2
19:05 45.7 °F /  7.6 °C 43.2 °F /  6.2 °C 30.1in /  1019.6hPa West 11mph /  17.7km/h 11mph /  17.7km/h 91% 0in /  0.0mm 0 W/m2
19:10 45.7 °F /  7.6 °C 43.2 °F /  6.2 °C 30.1in /  1019.6hPa WSW 4mph /  6.4km/h 8mph /  12.9km/h 91% 0in /  0.0mm 0 W/m2
19:15 45.3 °F /  7.4 °C 42.8 °F /  6 °C 30.1in /  1019.6hPa WSW 6.9mph /  11.1km/h 11mph /  17.7km/h 91% 0in /  0.0mm 0 W/m2
19:20 45.1 °F /  7.3 °C 42.6 °F /  5.9 °C 30.1in /  1019.6hPa SW 4mph /  6.4km/h 10mph /  16.1km/h 91% 0in /  0.0mm 0 W/m2
19:25 45 °F /  7.2 °C 42.4 °F /  5.8 °C 30.1in /  1020.0hPa WSW 4mph /  6.4km/h 7mph /  11.3km/h 91% 0in /  0.0mm 0 W/m2
19:30 45 °F /  7.2 °C 42.4 °F /  5.8 °C 30.1in /  1020.0hPa Calm   3mph /  4.8km/h 91% 0in /  0.0mm 0 W/m2
19:35 44.8 °F /  7.1 °C 42.3 °F /  5.7 °C 30.1in /  1020.0hPa Calm   5mph /  8km/h 91% 0in /  0.0mm 0 W/m2
19:40 44.6 °F /  7 °C 42.1 °F /  5.6 °C 30.1in /  1020.0hPa Calm   4mph /  6.4km/h 91% 0in /  0.0mm 0 W/m2
19:45 44.4 °F /  6.9 °C 41.9 °F /  5.5 °C 30.1in /  1020.3hPa Calm   1mph /  1.6km/h 91% 0in /  0.0mm 0 W/m2
19:50 44.2 °F /  6.8 °C 41.7 °F /  5.4 °C 30.1in /  1020.3hPa West 2.9mph /  4.7km/h 4mph /  6.4km/h 91% 0in /  0.0mm 0 W/m2
19:55 44.1 °F /  6.7 °C 41.9 °F /  5.5 °C 30.1in /  1020.3hPa Calm   7mph /  11.3km/h 92% 0.01in /  0.2mm 0 W/m2
20:00 43.9 °F /  6.6 °C 41.7 °F /  5.4 °C 30.1in /  1020.3hPa Calm   3mph /  4.8km/h 92% 0.01in /  0.2mm 0 W/m2
20:05 43.9 °F /  6.6 °C 41.7 °F /  5.4 °C 30.1in /  1020.7hPa WSW 4.9mph /  7.9km/h 10mph /  16.1km/h 92% 0.01in /  0.2mm 0 W/m2
20:10 44.1 °F /  6.7 °C 41.9 °F /  5.5 °C 30.1in /  1020.7hPa WSW 2.9mph /  4.7km/h 7mph /  11.3km/h 92% 0.01in /  0.2mm 0 W/m2
20:15 44.1 °F /  6.7 °C 41.9 °F /  5.5 °C 30.1in /  1020.7hPa WSW 10mph /  16.1km/h 10mph /  16.1km/h 92% 0.01in /  0.2mm 0 W/m2
20:20 44.2 °F /  6.8 °C 42.1 °F /  5.6 °C 30.2in /  1021.0hPa SSW 2mph /  3.2km/h 8mph /  12.9km/h 92% 0.01in /  0.2mm 0 W/m2
20:25 44.2 °F /  6.8 °C 42.1 °F /  5.6 °C 30.2in /  1021.0hPa West 6mph /  9.7km/h 7mph /  11.3km/h 92% 0.01in /  0.2mm 0 W/m2
20:30 44.1 °F /  6.7 °C 41.5 °F /  5.3 °C 30.2in /  1021.0hPa Calm   1mph /  1.6km/h 91% 0.01in /  0.2mm 0 W/m2
20:36 43.9 °F /  6.6 °C 41.4 °F /  5.2 °C 30.2in /  1021.3hPa SW 2mph /  3.2km/h 6mph /  9.7km/h 91% 0.01in /  0.2mm 0 W/m2
20:41 43.5 °F /  6.4 °C 41.4 °F /  5.2 °C 30.2in /  1021.3hPa WSW 0.9mph /  1.4km/h 3mph /  4.8km/h 92% 0.01in /  0.2mm 0 W/m2
20:46 43.3 °F /  6.3 °C 40.8 °F /  4.9 °C 30.2in /  1021.3hPa Calm   4mph /  6.4km/h 91% 0.01in /  0.2mm 0 W/m2
20:51 43.3 °F /  6.3 °C 41.2 °F /  5.1 °C 30.2in /  1021.3hPa WSW 4mph /  6.4km/h 4mph /  6.4km/h 92% 0in /  0.0mm 0 W/m2
20:56 43.2 °F /  6.2 °C 41 °F /  5 °C 30.2in /  1021.3hPa WSW 4mph /  6.4km/h 10mph /  16.1km/h 92% 0in /  0.0mm 0 W/m2
21:01 43.3 °F /  6.3 °C 41.2 °F /  5.1 °C 30.2in /  1021.3hPa WSW 0.9mph /  1.4km/h 5mph /  8km/h 92% 0in /  0.0mm 0 W/m2
21:06 43.2 °F /  6.2 °C 41 °F /  5 °C 30.2in /  1021.3hPa SW 2.9mph /  4.7km/h 10mph /  16.1km/h 92% 0in /  0.0mm 0 W/m2
21:11 43.2 °F /  6.2 °C 41 °F /  5 °C 30.2in /  1021.3hPa WSW 2mph /  3.2km/h 8mph /  12.9km/h 92% 0in /  0.0mm 0 W/m2
21:16 43.2 °F /  6.2 °C 41 °F /  5 °C 30.2in /  1021.3hPa SW 10mph /  16.1km/h 10mph /  16.1km/h 92% 0in /  0.0mm 0 W/m2
21:21 43 °F /  6.1 °C 40.8 °F /  4.9 °C 30.2in /  1021.3hPa West 2mph /  3.2km/h 9mph /  14.5km/h 92% 0in /  0.0mm 0 W/m2
21:26 43 °F /  6.1 °C 40.8 °F /  4.9 °C 30.2in /  1021.3hPa West 10mph /  16.1km/h 10mph /  16.1km/h 92% 0in /  0.0mm 0 W/m2
21:31 43 °F /  6.1 °C 40.5 °F /  4.7 °C 30.2in /  1021.3hPa WSW 2mph /  3.2km/h 8mph /  12.9km/h 91% 0in /  0.0mm 0 W/m2
21:36 43 °F /  6.1 °C 40.5 °F /  4.7 °C 30.2in /  1021.3hPa Calm   6mph /  9.7km/h 91% 0in /  0.0mm 0 W/m2
21:41 43 °F /  6.1 °C 40.5 °F /  4.7 °C 30.2in /  1021.3hPa West 6.9mph /  11.1km/h 10mph /  16.1km/h 91% 0in /  0.0mm 0 W/m2
21:46 43 °F /  6.1 °C 40.5 °F /  4.7 °C 30.2in /  1021.3hPa West 8.1mph /  13km/h 10mph /  16.1km/h 91% 0in /  0.0mm 0 W/m2
21:51 43 °F /  6.1 °C 40.3 °F /  4.6 °C 30.2in /  1021.3hPa West 6.9mph /  11.1km/h 9mph /  14.5km/h 90% 0in /  0.0mm 0 W/m2
21:56 43 °F /  6.1 °C 40.3 °F /  4.6 °C 30.2in /  1021.7hPa WNW 6.9mph /  11.1km/h 12mph /  19.3km/h 90% 0in /  0.0mm 0 W/m2
22:01 43 °F /  6.1 °C 40.3 °F /  4.6 °C 30.2in /  1021.7hPa WSW 2mph /  3.2km/h 5mph /  8km/h 90% 0in /  0.0mm 0 W/m2
22:07 42.6 °F /  5.9 °C 39.9 °F /  4.4 °C 30.2in /  1021.7hPa WSW 4.9mph /  7.9km/h 9mph /  14.5km/h 90% 0in /  0.0mm 0 W/m2
22:12 42.6 °F /  5.9 °C 39.9 °F /  4.4 °C 30.2in /  1021.7hPa West 2mph /  3.2km/h 6mph /  9.7km/h 90% 0in /  0.0mm 0 W/m2
22:17 42.4 °F /  5.8 °C 39.7 °F /  4.3 °C 30.2in /  1021.7hPa WSW 2.9mph /  4.7km/h 6mph /  9.7km/h 90% 0in /  0.0mm 0 W/m2
22:22 42.4 °F /  5.8 °C 39.7 °F /  4.3 °C 30.2in /  1022.0hPa WSW 4mph /  6.4km/h 10mph /  16.1km/h 90% 0in /  0.0mm 0 W/m2
22:27 42.6 °F /  5.9 °C 39.9 °F /  4.4 °C 30.2in /  1022.0hPa WSW 2.9mph /  4.7km/h 8mph /  12.9km/h 90% 0in /  0.0mm 0 W/m2
22:32 42.4 °F /  5.8 °C 39.7 °F /  4.3 °C 30.2in /  1022.0hPa WSW 0.9mph /  1.4km/h 10mph /  16.1km/h 90% 0in /  0.0mm 0 W/m2
22:37 42.4 °F /  5.8 °C 39.4 °F /  4.1 °C 30.2in /  1022.0hPa Calm   1mph /  1.6km/h 89% 0in /  0.0mm 0 W/m2
22:42 42.3 °F /  5.7 °C 39.6 °F /  4.2 °C 30.2in /  1022.0hPa Calm   4mph /  6.4km/h 90% 0in /  0.0mm 0 W/m2
22:47 42.1 °F /  5.6 °C 39.4 °F /  4.1 °C 30.2in /  1022.4hPa WSW 2.9mph /  4.7km/h 10mph /  16.1km/h 90% 0in /  0.0mm 0 W/m2
22:52 42.1 °F /  5.6 °C 39.4 °F /  4.1 °C 30.2in /  1022.4hPa WSW 4.9mph /  7.9km/h 5mph /  8km/h 90% 0in /  0.0mm 0 W/m2
22:57 42.1 °F /  5.6 °C 39.4 °F /  4.1 °C 30.2in /  1022.4hPa SW 2.9mph /  4.7km/h 10mph /  16.1km/h 90% 0in /  0.0mm 0 W/m2
23:02 41.9 °F /  5.5 °C 39.2 °F /  4 °C 30.2in /  1022.4hPa West 2mph /  3.2km/h 7mph /  11.3km/h 90% 0in /  0.0mm 0 W/m2
23:07 41.9 °F /  5.5 °C 39.2 °F /  4 °C 30.2in /  1022.4hPa WSW 2mph /  3.2km/h 8mph /  12.9km/h 90% 0in /  0.0mm 0 W/m2
23:12 41.7 °F /  5.4 °C 39 °F /  3.9 °C 30.2in /  1022.4hPa Calm   7mph /  11.3km/h 90% 0in /  0.0mm 0 W/m2
23:17 41.5 °F /  5.3 °C 38.8 °F /  3.8 °C 30.2in /  1022.7hPa WSW 4.9mph /  7.9km/h 9mph /  14.5km/h 90% 0in /  0.0mm 0 W/m2
23:22 41.5 °F /  5.3 °C 38.8 °F /  3.8 °C 30.2in /  1022.7hPa WSW 11mph /  17.7km/h 13mph /  20.9km/h 90% 0in /  0.0mm 0 W/m2
23:27 41.5 °F /  5.3 °C 38.8 °F /  3.8 °C 30.2in /  1022.7hPa WSW 6mph /  9.7km/h 9mph /  14.5km/h 90% 0in /  0.0mm 0 W/m2
23:32 41.5 °F /  5.3 °C 38.5 °F /  3.6 °C 30.2in /  1023.0hPa WSW 10.1mph /  16.3km/h 12mph /  19.3km/h 89% 0in /  0.0mm 0 W/m2
23:37 41.5 °F /  5.3 °C 38.5 °F /  3.6 °C 30.2in /  1023.0hPa Calm   6mph /  9.7km/h 89% 0in /  0.0mm 0 W/m2
23:42 41.4 °F /  5.2 °C 38.3 °F /  3.5 °C 30.2in /  1023.0hPa West 4mph /  6.4km/h 10mph /  16.1km/h 89% 0in /  0.0mm 0 W/m2
23:47 41.4 °F /  5.2 °C 38.1 °F /  3.4 °C 30.2in /  1023.0hPa Calm   4mph /  6.4km/h 88% 0in /  0.0mm 0 W/m2
23:52 41.2 °F /  5.1 °C 38.1 °F /  3.4 °C 30.2in /  1023.0hPa West 2mph /  3.2km/h 8mph /  12.9km/h 89% 0in /  0.0mm 0 W/m2
23:57 40.8 °F /  4.9 °C 37.8 °F /  3.2 °C 30.2in /  1023.0hPa West 2mph /  3.2km/h 3mph /  4.8km/h 89% 0in /  0.0mm 0 W/m2
Juneau County Weather
Compliments of Weather Underground - 2 mb